Liberal, KS

8:11 PM CST on February 06, 2016 (GMT -0600)
Liberal Municipal

Weather History for KLBL - October, 2012

Change the Weather History Date:

Friday, October 19, 2012

  Actual Average Record
Temperature  
Mean Temperature 53 °F -  
Max Temperature 73 °F 70 °F 92 °F (1975)
Min Temperature 33 °F 39 °F 25 °F (1976)
Degree Days  
Heating Degree Days 12    
Growing Degree Days 3 (Base 50)    
Moisture  
Dew Point 26 °F    
Average Humidity 39    
Maximum Humidity 60    
Minimum Humidity 18    
Precipitation  
Precipitation 0.00 in - - ()
Sea Level Pressure  
Sea Level Pressure 29.92 in    
Wind  
Wind Speed 10 mph (WSW)    
Max Wind Speed 15 mph    
Max Gust Speed 21 mph    
Visibility 10 miles    
Events      
Averages and records for this station are not official NWS values.
T = Trace of Precipitation, MM = Missing Value Source: NWS Daily Summary

Daily Weather History Graph

Daily Weather History Graph

Search for Another Location

Airport or City:

Trip Planner

Search our weather history database for the weather conditions in past years. The results will help you decide how hot, cold, wet, or windy it might be!

Date:

Astronomy

Oct. 19, 2012 Rise Set
Actual Time 7:55 AM CDT 7:01 PM CDT
Civil Twilight 7:29 AM CDT 7:27 PM CDT
Nautical Twilight 6:59 AM CDT 7:57 PM CDT
Astronomical Twilight 6:29 AM CDT 8:27 PM CDT
Moon 12:35 PM CDT (10/19) 10:46 PM CDT (10/19)
Length of Visible Light 11h 57m
Length of Day
11h 05m
Waxing Crescent, 24% of the Moon is Illuminated
Oct 19
Waxing Crescent
Oct 21
First Quarter
Oct 29
Full
Nov 6
Last Quarter
Nov 13
New

Hourly Weather History & Observations

Time (CDT) Temp. Windchill Dew Point Humidity Pressure Visibility Wind Dir Wind Speed Gust Speed Precip Events Conditions
12:15 AM 37.4 °F 30.3 °F 19.4 °F 48% - 10.0 mi West 10.4 mph - N/A   Clear
12:35 AM 37.4 °F 29.8 °F 21.2 °F 52% - 10.0 mi West 11.5 mph - N/A   Clear
12:55 AM 39.2 °F 32.0 °F 21.2 °F 49% - 10.0 mi West 11.5 mph - N/A   Clear
1:15 AM 39.2 °F 31.6 °F 21.2 °F 49% - 10.0 mi West 12.7 mph - N/A   Clear
1:35 AM 37.4 °F 29.8 °F 21.2 °F 52% - 10.0 mi West 11.5 mph - N/A   Clear
1:55 AM 39.2 °F 32.0 °F 21.2 °F 49% - 10.0 mi WNW 11.5 mph - N/A   Clear
2:15 AM 37.4 °F 29.8 °F 19.4 °F 48% - 10.0 mi WNW 11.5 mph - N/A   Clear
2:35 AM 39.2 °F 33.0 °F 21.2 °F 49% - 10.0 mi WNW 9.2 mph - N/A   Clear
2:55 AM 37.4 °F 30.8 °F 19.4 °F 48% - 10.0 mi WNW 9.2 mph - N/A   Clear
3:15 AM 37.4 °F 30.3 °F 21.2 °F 52% - 10.0 mi West 10.4 mph - N/A   Clear
3:35 AM 37.4 °F 29.8 °F 21.2 °F 52% - 10.0 mi West 11.5 mph - N/A   Clear
3:55 AM 37.4 °F 30.8 °F 19.4 °F 48% - 10.0 mi West 9.2 mph - N/A   Clear
4:15 AM 35.6 °F 28.6 °F 19.4 °F 52% - 10.0 mi WNW 9.2 mph - N/A   Clear
4:35 AM 35.6 °F 28.0 °F 19.4 °F 52% - 10.0 mi WNW 10.4 mph - N/A   Clear
4:55 AM 33.8 °F 27.7 °F 19.4 °F 56% - 10.0 mi NW 6.9 mph - N/A   Clear
5:15 AM 35.6 °F 28.6 °F 19.4 °F 52% - 10.0 mi NNW 9.2 mph - N/A   Clear
5:35 AM 37.4 °F 32.1 °F 21.2 °F 52% - 10.0 mi NW 6.9 mph - N/A   Clear
5:55 AM 35.6 °F 28.6 °F 21.2 °F 56% - 10.0 mi WNW 9.2 mph - N/A   Clear
6:15 AM 35.6 °F 29.2 °F 21.2 °F 56% - 10.0 mi NW 8.1 mph - N/A   Clear
6:35 AM 35.6 °F 29.2 °F 21.2 °F 56% - 10.0 mi NNW 8.1 mph - N/A   Clear
6:55 AM 35.6 °F 28.6 °F 21.2 °F 56% - 10.0 mi NNW 9.2 mph - N/A   Clear
7:15 AM 35.6 °F 27.5 °F 21.2 °F 56% - 10.0 mi NW 11.5 mph - N/A   Clear
7:35 AM 35.6 °F 28.6 °F 21.2 °F 56% - 10.0 mi NW 9.2 mph - N/A   Clear
7:55 AM 33.8 °F 25.8 °F 19.4 °F 56% - 10.0 mi WNW 10.4 mph - N/A   Clear
8:15 AM 33.8 °F 26.4 °F 21.2 °F 60% - 10.0 mi West 9.2 mph - N/A   Clear
8:35 AM 37.4 °F 30.8 °F 24.8 °F 60% - 10.0 mi WNW 9.2 mph - N/A   Clear
8:55 AM 39.2 °F 32.5 °F 24.8 °F 56% - 10.0 mi West 10.4 mph - N/A   Clear
9:15 AM 42.8 °F 37.5 °F 26.6 °F 53% - 10.0 mi West 9.2 mph - N/A   Clear
9:35 AM 46.4 °F 41.1 °F 28.4 °F 50% 30.06 in 10.0 mi West 11.5 mph - N/A   Clear
9:55 AM 51.8 °F - 28.4 °F 41% 30.06 in 10.0 mi West 9.2 mph - N/A   Clear
10:15 AM 53.6 °F - 28.4 °F 38% 30.07 in 10.0 mi NW 10.4 mph - N/A   Clear
10:35 AM 55.4 °F - 28.4 °F 36% 30.07 in 10.0 mi NW 10.4 mph - N/A   Clear
10:55 AM 57.2 °F - 26.6 °F 31% 30.07 in 10.0 mi NNW 9.2 mph - N/A   Clear
11:15 AM 59.0 °F - 24.8 °F 27% 30.06 in 10.0 mi NNW 9.2 mph - N/A   Clear
11:35 AM 60.8 °F - 24.8 °F 25% 30.06 in 10.0 mi NNW 8.1 mph - N/A   Clear
11:55 AM 60.8 °F - 26.6 °F 27% 30.05 in 10.0 mi NNW 5.8 mph - N/A   Clear
12:15 PM 62.6 °F - 24.8 °F 24% 30.04 in 10.0 mi WSW 9.2 mph - N/A   Clear
12:35 PM 62.6 °F - 24.8 °F 24% 30.03 in 10.0 mi WSW 5.8 mph - N/A   Clear
12:55 PM - - - N/A% - - North - - N/A   Unknown
1:15 PM - - - N/A% - - North - - N/A   Unknown
1:35 PM 69.8 °F - 42.8 °F 38% 29.99 in 10.0 mi SSW 10.4 mph - N/A   Unknown
1:55 PM 69.8 °F - 24.8 °F 18% 29.97 in 10.0 mi SW 15.0 mph 18.4 mph N/A   Clear
2:15 PM 69.8 °F - 26.6 °F 20% 29.96 in 10.0 mi WSW 13.8 mph 20.7 mph N/A   Clear
2:35 PM 69.8 °F - 26.6 °F 20% 29.94 in 10.0 mi SW 15.0 mph - N/A   Clear
2:55 PM 71.6 °F - 26.6 °F 19% 29.93 in 10.0 mi WSW 10.4 mph - N/A   Clear
3:15 PM 71.6 °F - 26.6 °F 19% 29.91 in 10.0 mi SSW 11.5 mph 17.3 mph N/A   Clear
3:35 PM 71.6 °F - 28.4 °F 20% 29.90 in 10.0 mi SW 9.2 mph - N/A   Clear
3:55 PM 73.4 °F - 28.4 °F 19% 29.89 in 10.0 mi WSW 9.2 mph - N/A   Clear
4:15 PM 73.4 °F - 28.4 °F 19% 29.89 in 10.0 mi SW 9.2 mph - N/A   Clear
4:35 PM 71.6 °F - 28.4 °F 20% 29.88 in 10.0 mi SSW 10.4 mph - N/A   Clear
4:55 PM 71.6 °F - 28.4 °F 20% 29.88 in 10.0 mi SSW 9.2 mph - N/A   Clear
5:15 PM 71.6 °F - 30.2 °F 22% 29.87 in 10.0 mi South 6.9 mph - N/A   Clear
5:35 PM 71.6 °F - 30.2 °F 22% 29.87 in 10.0 mi South 4.6 mph - N/A   Clear
5:55 PM 73.4 °F - 30.2 °F 20% 29.86 in 10.0 mi SSE 5.8 mph - N/A   Clear
6:15 PM 71.6 °F - 30.2 °F 22% 29.86 in 10.0 mi South 4.6 mph - N/A   Clear
6:35 PM 69.8 °F - 32.0 °F 25% 29.85 in 10.0 mi SSE 8.1 mph - N/A   Clear
6:55 PM 64.4 °F - 28.4 °F 26% 29.85 in 10.0 mi ESE 5.8 mph - N/A   Clear
7:15 PM 64.4 °F - 30.2 °F 28% 29.85 in 10.0 mi ESE 6.9 mph - N/A   Clear
7:35 PM 62.6 °F - 30.2 °F 30% 29.84 in 10.0 mi SE 8.1 mph - N/A   Clear
7:55 PM 60.8 °F - 28.4 °F 29% 29.85 in 10.0 mi ESE 8.1 mph - N/A   Clear
8:15 PM 59.0 °F - 28.4 °F 31% 29.85 in 10.0 mi SE 9.2 mph - N/A   Clear
8:35 PM 57.2 °F - 28.4 °F 33% 29.85 in 10.0 mi SE 10.4 mph - N/A   Clear
8:55 PM 55.4 °F - 28.4 °F 36% 29.84 in 10.0 mi SE 11.5 mph - N/A   Clear
9:15 PM 55.4 °F - 28.4 °F 36% 29.84 in 10.0 mi SSE 10.4 mph - N/A   Clear
9:35 PM 53.6 °F - 28.4 °F 38% 29.83 in 10.0 mi SE 11.5 mph - N/A   Clear
9:55 PM 53.6 °F - 30.2 °F 41% 29.83 in 10.0 mi SE 10.4 mph - N/A   Clear
10:15 PM 53.6 °F - 30.2 °F 41% 29.83 in 10.0 mi SE 8.1 mph - N/A   Clear
10:35 PM 51.8 °F - 28.4 °F 41% 29.83 in 10.0 mi SSE 8.1 mph - N/A   Clear
10:55 PM 51.8 °F - 30.2 °F 44% 29.83 in 10.0 mi SSE 6.9 mph - N/A   Clear
11:15 PM 50.0 °F - 30.2 °F 47% 29.83 in 10.0 mi SSE 6.9 mph - N/A   Clear
11:35 PM 48.2 °F - 30.2 °F 50% 29.83 in 10.0 mi South 6.9 mph - N/A   Clear
11:55 PM 46.4 °F 41.9 °F 28.4 °F 50% 29.83 in 10.0 mi South 9.2 mph - N/A   Clear